sensor_id;sensor_type;location;lat;lon;timestamp;P1;durP1;ratioP1;P2;durP2;ratioP2
60100;SDS011;45978;53.646;55.930;2022-08-02T00:00:41;26.35;;;23.30;;
60100;SDS011;45978;53.646;55.930;2022-08-02T00:01:43;26.25;;;22.38;;
60100;SDS011;45978;53.646;55.930;2022-08-02T00:02:45;31.65;;;21.73;;
60100;SDS011;45978;53.646;55.930;2022-08-02T00:03:48;24.67;;;19.95;;
60100;SDS011;45978;53.646;55.930;2022-08-02T00:04:49;22.33;;;19.85;;
60100;SDS011;45978;53.646;55.930;2022-08-02T00:05:51;24.30;;;20.67;;
60100;SDS011;45978;53.646;55.930;2022-08-02T00:06:53;23.33;;;18.95;;
60100;SDS011;45978;53.646;55.930;2022-08-02T00:07:54;25.13;;;19.75;;
60100;SDS011;45978;53.646;55.930;2022-08-02T00:08:55;24.42;;;19.23;;
60100;SDS011;45978;53.646;55.930;2022-08-02T00:09:56;23.15;;;19.23;;
60100;SDS011;45978;53.646;55.930;2022-08-02T00:10:58;22.88;;;19.10;;
60100;SDS011;45978;53.646;55.930;2022-08-02T00:11:59;22.08;;;18.45;;
60100;SDS011;45978;53.646;55.930;2022-08-02T00:13:01;19.30;;;17.00;;
60100;SDS011;45978;53.646;55.930;2022-08-02T00:14:02;21.90;;;18.00;;
60100;SDS011;45978;53.646;55.930;2022-08-02T00:15:05;28.38;;;19.70;;
60100;SDS011;45978;53.646;55.930;2022-08-02T00:16:07;21.58;;;17.90;;
60100;SDS011;45978;53.646;55.930;2022-08-02T00:17:08;21.60;;;17.70;;
60100;SDS011;45978;53.646;55.930;2022-08-02T00:18:09;21.35;;;17.67;;
60100;SDS011;45978;53.646;55.930;2022-08-02T00:19:11;29.80;;;20.00;;
60100;SDS011;45978;53.646;55.930;2022-08-02T00:20:12;20.83;;;18.55;;
60100;SDS011;45978;53.646;55.930;2022-08-02T00:21:13;21.35;;;17.58;;
60100;SDS011;45978;53.646;55.930;2022-08-02T00:22:15;22.75;;;18.63;;
60100;SDS011;45978;53.646;55.930;2022-08-02T00:23:17;27.15;;;18.55;;
60100;SDS011;45978;53.646;55.930;2022-08-02T00:24:18;24.88;;;19.48;;
60100;SDS011;45978;53.646;55.930;2022-08-02T00:25:19;24.80;;;18.85;;
60100;SDS011;45978;53.646;55.930;2022-08-02T00:26:21;21.77;;;19.50;;
60100;SDS011;45978;53.646;55.930;2022-08-02T00:27:23;21.67;;;19.40;;
60100;SDS011;45978;53.646;55.930;2022-08-02T00:28:25;22.67;;;18.95;;
60100;SDS011;45978;53.646;55.930;2022-08-02T00:29:26;21.85;;;18.67;;
60100;SDS011;45978;53.646;55.930;2022-08-02T00:30:27;22.63;;;18.65;;
60100;SDS011;45978;53.646;55.930;2022-08-02T00:31:28;22.08;;;19.05;;
60100;SDS011;45978;53.646;55.930;2022-08-02T00:32:31;20.20;;;18.10;;
60100;SDS011;45978;53.646;55.930;2022-08-02T00:33:32;24.70;;;20.10;;
60100;SDS011;45978;53.646;55.930;2022-08-02T00:34:35;24.13;;;18.73;;
60100;SDS011;45978;53.646;55.930;2022-08-02T00:35:37;24.63;;;19.13;;
60100;SDS011;45978;53.646;55.930;2022-08-02T00:36:39;25.35;;;18.85;;
60100;SDS011;45978;53.646;55.930;2022-08-02T00:37:40;24.75;;;19.17;;
60100;SDS011;45978;53.646;55.930;2022-08-02T00:38:42;23.35;;;19.42;;
60100;SDS011;45978;53.646;55.930;2022-08-02T00:39:44;22.58;;;18.38;;
60100;SDS011;45978;53.646;55.930;2022-08-02T00:40:46;27.15;;;20.15;;
60100;SDS011;45978;53.646;55.930;2022-08-02T00:41:51;24.73;;;19.58;;
60100;SDS011;45978;53.646;55.930;2022-08-02T00:43:03;23.50;;;19.42;;
60100;SDS011;45978;53.646;55.930;2022-08-02T00:44:09;28.17;;;20.38;;
60100;SDS011;45978;53.646;55.930;2022-08-02T00:45:10;23.10;;;18.30;;
60100;SDS011;45978;53.646;55.930;2022-08-02T00:46:11;26.25;;;19.50;;
60100;SDS011;45978;53.646;55.930;2022-08-02T00:47:14;22.67;;;18.33;;
60100;SDS011;45978;53.646;55.930;2022-08-02T00:48:15;20.48;;;18.02;;
60100;SDS011;45978;53.646;55.930;2022-08-02T00:49:16;22.30;;;19.27;;
60100;SDS011;45978;53.646;55.930;2022-08-02T00:50:17;22.02;;;17.98;;
60100;SDS011;45978;53.646;55.930;2022-08-02T00:51:20;27.25;;;19.17;;
60100;SDS011;45978;53.646;55.930;2022-08-02T00:52:22;23.50;;;19.55;;
60100;SDS011;45978;53.646;55.930;2022-08-02T00:53:24;27.25;;;19.40;;
60100;SDS011;45978;53.646;55.930;2022-08-02T00:54:25;26.27;;;19.13;;
60100;SDS011;45978;53.646;55.930;2022-08-02T00:55:28;20.98;;;17.40;;
60100;SDS011;45978;53.646;55.930;2022-08-02T00:56:29;30.38;;;17.67;;
60100;SDS011;45978;53.646;55.930;2022-08-02T00:57:31;28.50;;;19.77;;
60100;SDS011;45978;53.646;55.930;2022-08-02T00:58:32;22.38;;;19.85;;
60100;SDS011;45978;53.646;55.930;2022-08-02T00:59:33;27.00;;;19.23;;
60100;SDS011;45978;53.646;55.930;2022-08-02T01:00:35;25.63;;;20.15;;
60100;SDS011;45978;53.646;55.930;2022-08-02T01:01:36;24.35;;;18.77;;
60100;SDS011;45978;53.646;55.930;2022-08-02T01:02:38;23.10;;;19.30;;
60100;SDS011;45978;53.646;55.930;2022-08-02T01:03:39;24.15;;;19.02;;
60100;SDS011;45978;53.646;55.930;2022-08-02T01:04:40;25.77;;;19.35;;
60100;SDS011;45978;53.646;55.930;2022-08-02T01:05:42;23.55;;;19.95;;
60100;SDS011;45978;53.646;55.930;2022-08-02T01:06:46;24.02;;;19.85;;
60100;SDS011;45978;53.646;55.930;2022-08-02T01:07:47;23.00;;;19.13;;
60100;SDS011;45978;53.646;55.930;2022-08-02T01:08:48;24.35;;;19.35;;
60100;SDS011;45978;53.646;55.930;2022-08-02T01:09:50;24.10;;;19.05;;
60100;SDS011;45978;53.646;55.930;2022-08-02T01:10:51;24.40;;;19.45;;
60100;SDS011;45978;53.646;55.930;2022-08-02T01:11:54;28.08;;;19.73;;
60100;SDS011;45978;53.646;55.930;2022-08-02T01:12:55;24.10;;;18.52;;
60100;SDS011;45978;53.646;55.930;2022-08-02T01:13:57;26.75;;;20.33;;
60100;SDS011;45978;53.646;55.930;2022-08-02T01:15:05;32.60;;;20.25;;
60100;SDS011;45978;53.646;55.930;2022-08-02T01:16:21;28.83;;;20.33;;
60100;SDS011;45978;53.646;55.930;2022-08-02T01:18:52;28.20;;;20.27;;
60100;SDS011;45978;53.646;55.930;2022-08-02T01:21:22;28.25;;;22.27;;
60100;SDS011;45978;53.646;55.930;2022-08-02T01:25:12;31.55;;;25.83;;
60100;SDS011;45978;53.646;55.930;2022-08-02T01:29:33;33.15;;;27.85;;
60100;SDS011;45978;53.646;55.930;2022-08-02T01:30:38;36.38;;;29.90;;
60100;SDS011;45978;53.646;55.930;2022-08-02T01:32:07;38.20;;;29.73;;
60100;SDS011;45978;53.646;55.930;2022-08-02T01:33:14;41.40;;;32.72;;
60100;SDS011;45978;53.646;55.930;2022-08-02T01:35:50;55.38;;;45.10;;
60100;SDS011;45978;53.646;55.930;2022-08-02T01:38:26;63.60;;;47.65;;
60100;SDS011;45978;53.646;55.930;2022-08-02T01:39:35;61.50;;;48.78;;
60100;SDS011;45978;53.646;55.930;2022-08-02T01:40:40;57.05;;;47.63;;
60100;SDS011;45978;53.646;55.930;2022-08-02T01:41:44;60.80;;;48.13;;
60100;SDS011;45978;53.646;55.930;2022-08-02T01:42:48;70.78;;;51.67;;
60100;SDS011;45978;53.646;55.930;2022-08-02T01:43:54;68.03;;;54.08;;
60100;SDS011;45978;53.646;55.930;2022-08-02T01:45:00;55.92;;;47.25;;
60100;SDS011;45978;53.646;55.930;2022-08-02T01:46:04;61.63;;;52.70;;
60100;SDS011;45978;53.646;55.930;2022-08-02T01:47:07;69.65;;;54.30;;
60100;SDS011;45978;53.646;55.930;2022-08-02T01:48:14;64.32;;;51.92;;
60100;SDS011;45978;53.646;55.930;2022-08-02T01:49:20;68.05;;;53.40;;
60100;SDS011;45978;53.646;55.930;2022-08-02T01:50:25;65.05;;;52.50;;
60100;SDS011;45978;53.646;55.930;2022-08-02T01:51:29;64.25;;;50.08;;
60100;SDS011;45978;53.646;55.930;2022-08-02T01:52:52;62.20;;;45.17;;
60100;SDS011;45978;53.646;55.930;2022-08-02T01:53:56;54.35;;;40.60;;
60100;SDS011;45978;53.646;55.930;2022-08-02T01:54:59;60.85;;;39.88;;
60100;SDS011;45978;53.646;55.930;2022-08-02T01:56:04;45.67;;;35.05;;
60100;SDS011;45978;53.646;55.930;2022-08-02T01:57:08;56.20;;;35.80;;
60100;SDS011;45978;53.646;55.930;2022-08-02T01:58:11;42.95;;;30.95;;
60100;SDS011;45978;53.646;55.930;2022-08-02T01:59:17;40.72;;;30.38;;
60100;SDS011;45978;53.646;55.930;2022-08-02T02:00:23;33.45;;;26.98;;
60100;SDS011;45978;53.646;55.930;2022-08-02T02:01:30;67.53;;;27.27;;
60100;SDS011;45978;53.646;55.930;2022-08-02T02:02:37;35.95;;;27.65;;
60100;SDS011;45978;53.646;55.930;2022-08-02T02:03:42;34.53;;;26.27;;
60100;SDS011;45978;53.646;55.930;2022-08-02T02:04:45;34.50;;;27.13;;
60100;SDS011;45978;53.646;55.930;2022-08-02T02:05:47;32.97;;;26.20;;
60100;SDS011;45978;53.646;55.930;2022-08-02T02:06:51;34.10;;;23.95;;
60100;SDS011;45978;53.646;55.930;2022-08-02T02:07:56;35.38;;;24.08;;
60100;SDS011;45978;53.646;55.930;2022-08-02T02:08:58;33.50;;;24.95;;
60100;SDS011;45978;53.646;55.930;2022-08-02T02:10:00;32.50;;;25.00;;
60100;SDS011;45978;53.646;55.930;2022-08-02T02:11:04;33.10;;;24.33;;
60100;SDS011;45978;53.646;55.930;2022-08-02T02:12:06;35.95;;;24.13;;
60100;SDS011;45978;53.646;55.930;2022-08-02T02:13:11;37.30;;;26.10;;
60100;SDS011;45978;53.646;55.930;2022-08-02T02:14:23;38.63;;;26.38;;
60100;SDS011;45978;53.646;55.930;2022-08-02T02:15:26;28.20;;;22.38;;
60100;SDS011;45978;53.646;55.930;2022-08-02T02:16:29;34.75;;;25.25;;
60100;SDS011;45978;53.646;55.930;2022-08-02T02:17:33;31.70;;;24.52;;
60100;SDS011;45978;53.646;55.930;2022-08-02T02:20:11;40.47;;;26.75;;
60100;SDS011;45978;53.646;55.930;2022-08-02T02:21:20;37.88;;;27.80;;
60100;SDS011;45978;53.646;55.930;2022-08-02T02:22:21;43.15;;;26.45;;
60100;SDS011;45978;53.646;55.930;2022-08-02T02:23:23;40.33;;;30.25;;
60100;SDS011;45978;53.646;55.930;2022-08-02T02:24:24;35.00;;;27.70;;
60100;SDS011;45978;53.646;55.930;2022-08-02T02:25:26;36.30;;;26.50;;
60100;SDS011;45978;53.646;55.930;2022-08-02T02:26:31;38.65;;;26.98;;
60100;SDS011;45978;53.646;55.930;2022-08-02T02:27:42;35.60;;;26.85;;
60100;SDS011;45978;53.646;55.930;2022-08-02T02:28:53;36.63;;;27.83;;
60100;SDS011;45978;53.646;55.930;2022-08-02T02:29:56;36.97;;;27.30;;
60100;SDS011;45978;53.646;55.930;2022-08-02T02:31:16;38.20;;;31.58;;
60100;SDS011;45978;53.646;55.930;2022-08-02T02:32:19;45.33;;;31.88;;
60100;SDS011;45978;53.646;55.930;2022-08-02T02:33:23;39.13;;;28.73;;
60100;SDS011;45978;53.646;55.930;2022-08-02T02:34:27;46.13;;;30.55;;
60100;SDS011;45978;53.646;55.930;2022-08-02T02:35:35;46.20;;;31.27;;
60100;SDS011;45978;53.646;55.930;2022-08-02T02:36:38;41.45;;;31.77;;
60100;SDS011;45978;53.646;55.930;2022-08-02T02:37:45;40.15;;;32.83;;
60100;SDS011;45978;53.646;55.930;2022-08-02T02:38:49;43.72;;;30.90;;
60100;SDS011;45978;53.646;55.930;2022-08-02T02:39:53;34.50;;;28.42;;
60100;SDS011;45978;53.646;55.930;2022-08-02T02:40:57;34.20;;;25.38;;
60100;SDS011;45978;53.646;55.930;2022-08-02T02:42:02;43.15;;;25.50;;
60100;SDS011;45978;53.646;55.930;2022-08-02T02:43:08;30.83;;;24.00;;
60100;SDS011;45978;53.646;55.930;2022-08-02T02:44:12;37.10;;;25.40;;
60100;SDS011;45978;53.646;55.930;2022-08-02T02:45:18;46.15;;;25.85;;
60100;SDS011;45978;53.646;55.930;2022-08-02T02:46:21;31.85;;;25.65;;
60100;SDS011;45978;53.646;55.930;2022-08-02T02:47:23;33.97;;;28.17;;
60100;SDS011;45978;53.646;55.930;2022-08-02T02:48:28;32.13;;;26.23;;
60100;SDS011;45978;53.646;55.930;2022-08-02T02:49:30;40.95;;;26.95;;
60100;SDS011;45978;53.646;55.930;2022-08-02T02:50:35;33.33;;;26.25;;
60100;SDS011;45978;53.646;55.930;2022-08-02T02:51:40;35.95;;;25.48;;
60100;SDS011;45978;53.646;55.930;2022-08-02T02:52:44;33.75;;;26.05;;
60100;SDS011;45978;53.646;55.930;2022-08-02T02:53:47;36.17;;;27.48;;
60100;SDS011;45978;53.646;55.930;2022-08-02T02:54:50;34.33;;;25.50;;
60100;SDS011;45978;53.646;55.930;2022-08-02T02:55:54;31.75;;;23.70;;
60100;SDS011;45978;53.646;55.930;2022-08-02T02:56:56;31.30;;;22.60;;
60100;SDS011;45978;53.646;55.930;2022-08-02T02:57:59;30.38;;;21.80;;
60100;SDS011;45978;53.646;55.930;2022-08-02T02:59:02;28.77;;;21.40;;
60100;SDS011;45978;53.646;55.930;2022-08-02T03:00:08;23.50;;;18.05;;
60100;SDS011;45978;53.646;55.930;2022-08-02T03:01:14;28.85;;;18.05;;
60100;SDS011;45978;53.646;55.930;2022-08-02T03:02:29;21.75;;;17.13;;
60100;SDS011;45978;53.646;55.930;2022-08-02T03:03:30;22.73;;;17.92;;
60100;SDS011;45978;53.646;55.930;2022-08-02T03:04:33;24.67;;;18.27;;
60100;SDS011;45978;53.646;55.930;2022-08-02T03:05:35;23.23;;;17.45;;
60100;SDS011;45978;53.646;55.930;2022-08-02T03:06:38;26.80;;;17.80;;
60100;SDS011;45978;53.646;55.930;2022-08-02T03:07:43;24.45;;;17.38;;
60100;SDS011;45978;53.646;55.930;2022-08-02T03:08:46;21.52;;;17.17;;
60100;SDS011;45978;53.646;55.930;2022-08-02T03:09:53;21.63;;;17.73;;
60100;SDS011;45978;53.646;55.930;2022-08-02T03:10:57;21.63;;;18.02;;
60100;SDS011;45978;53.646;55.930;2022-08-02T03:12:03;30.88;;;20.15;;
60100;SDS011;45978;53.646;55.930;2022-08-02T03:13:05;29.02;;;20.80;;
60100;SDS011;45978;53.646;55.930;2022-08-02T03:14:08;30.55;;;22.55;;
60100;SDS011;45978;53.646;55.930;2022-08-02T03:15:11;29.27;;;23.38;;
60100;SDS011;45978;53.646;55.930;2022-08-02T03:16:14;33.40;;;23.88;;
60100;SDS011;45978;53.646;55.930;2022-08-02T03:17:16;35.35;;;27.15;;
60100;SDS011;45978;53.646;55.930;2022-08-02T03:18:39;30.92;;;23.83;;
60100;SDS011;45978;53.646;55.930;2022-08-02T03:19:40;33.78;;;21.63;;
60100;SDS011;45978;53.646;55.930;2022-08-02T03:20:42;30.58;;;22.58;;
60100;SDS011;45978;53.646;55.930;2022-08-02T03:21:46;34.25;;;22.98;;
60100;SDS011;45978;53.646;55.930;2022-08-02T03:22:48;32.03;;;21.75;;
60100;SDS011;45978;53.646;55.930;2022-08-02T03:23:50;29.98;;;21.15;;
60100;SDS011;45978;53.646;55.930;2022-08-02T03:24:51;25.08;;;20.05;;
60100;SDS011;45978;53.646;55.930;2022-08-02T03:25:52;24.30;;;17.85;;
60100;SDS011;45978;53.646;55.930;2022-08-02T03:26:58;29.75;;;17.63;;
60100;SDS011;45978;53.646;55.930;2022-08-02T03:28:08;27.95;;;17.85;;
60100;SDS011;45978;53.646;55.930;2022-08-02T03:29:11;22.85;;;17.52;;
60100;SDS011;45978;53.646;55.930;2022-08-02T03:30:12;23.83;;;18.23;;
60100;SDS011;45978;53.646;55.930;2022-08-02T03:31:14;25.23;;;18.85;;
60100;SDS011;45978;53.646;55.930;2022-08-02T03:32:17;29.60;;;19.13;;
60100;SDS011;45978;53.646;55.930;2022-08-02T03:33:19;23.90;;;19.98;;
60100;SDS011;45978;53.646;55.930;2022-08-02T03:34:25;24.42;;;19.35;;
60100;SDS011;45978;53.646;55.930;2022-08-02T03:35:27;25.88;;;20.30;;
60100;SDS011;45978;53.646;55.930;2022-08-02T03:36:29;36.95;;;20.67;;
60100;SDS011;45978;53.646;55.930;2022-08-02T03:37:32;31.52;;;20.48;;
60100;SDS011;45978;53.646;55.930;2022-08-02T03:38:36;27.80;;;19.65;;
60100;SDS011;45978;53.646;55.930;2022-08-02T03:39:38;23.58;;;19.58;;
60100;SDS011;45978;53.646;55.930;2022-08-02T03:40:43;32.60;;;19.55;;
60100;SDS011;45978;53.646;55.930;2022-08-02T03:41:46;22.00;;;17.40;;
60100;SDS011;45978;53.646;55.930;2022-08-02T03:42:50;26.95;;;18.58;;
60100;SDS011;45978;53.646;55.930;2022-08-02T03:43:53;26.23;;;16.83;;
60100;SDS011;45978;53.646;55.930;2022-08-02T03:44:57;21.77;;;18.15;;
60100;SDS011;45978;53.646;55.930;2022-08-02T03:46:06;23.65;;;17.35;;
60100;SDS011;45978;53.646;55.930;2022-08-02T03:47:09;28.00;;;20.13;;
60100;SDS011;45978;53.646;55.930;2022-08-02T03:48:12;26.17;;;18.98;;
60100;SDS011;45978;53.646;55.930;2022-08-02T03:49:17;27.63;;;20.00;;
60100;SDS011;45978;53.646;55.930;2022-08-02T03:50:19;25.30;;;19.80;;
60100;SDS011;45978;53.646;55.930;2022-08-02T03:51:24;23.33;;;17.77;;
60100;SDS011;45978;53.646;55.930;2022-08-02T03:52:26;23.90;;;16.40;;
60100;SDS011;45978;53.646;55.930;2022-08-02T03:53:29;21.63;;;17.02;;
60100;SDS011;45978;53.646;55.930;2022-08-02T03:54:30;24.08;;;17.88;;
60100;SDS011;45978;53.646;55.930;2022-08-02T03:55:33;26.42;;;20.83;;
60100;SDS011;45978;53.646;55.930;2022-08-02T03:56:35;22.40;;;19.35;;
60100;SDS011;45978;53.646;55.930;2022-08-02T03:57:37;25.25;;;19.90;;
60100;SDS011;45978;53.646;55.930;2022-08-02T03:58:39;28.83;;;20.42;;
60100;SDS011;45978;53.646;55.930;2022-08-02T03:59:42;26.35;;;20.15;;
60100;SDS011;45978;53.646;55.930;2022-08-02T04:00:44;33.33;;;22.08;;
60100;SDS011;45978;53.646;55.930;2022-08-02T04:01:49;32.08;;;20.52;;
60100;SDS011;45978;53.646;55.930;2022-08-02T04:02:50;29.15;;;20.90;;
60100;SDS011;45978;53.646;55.930;2022-08-02T04:03:52;28.23;;;21.40;;
60100;SDS011;45978;53.646;55.930;2022-08-02T04:04:54;27.05;;;20.42;;
60100;SDS011;45978;53.646;55.930;2022-08-02T04:05:56;27.55;;;20.15;;
60100;SDS011;45978;53.646;55.930;2022-08-02T04:06:57;28.75;;;20.50;;
60100;SDS011;45978;53.646;55.930;2022-08-02T04:07:58;27.95;;;20.73;;
60100;SDS011;45978;53.646;55.930;2022-08-02T04:09:00;29.52;;;20.42;;
60100;SDS011;45978;53.646;55.930;2022-08-02T04:10:02;28.58;;;20.85;;
60100;SDS011;45978;53.646;55.930;2022-08-02T04:11:04;31.42;;;20.50;;
60100;SDS011;45978;53.646;55.930;2022-08-02T04:12:24;30.23;;;21.30;;
60100;SDS011;45978;53.646;55.930;2022-08-02T04:13:30;32.45;;;20.17;;
60100;SDS011;45978;53.646;55.930;2022-08-02T04:14:33;33.03;;;19.92;;
60100;SDS011;45978;53.646;55.930;2022-08-02T04:15:35;26.73;;;19.77;;
60100;SDS011;45978;53.646;55.930;2022-08-02T04:16:42;30.65;;;19.88;;
60100;SDS011;45978;53.646;55.930;2022-08-02T04:18:04;23.65;;;19.17;;
60100;SDS011;45978;53.646;55.930;2022-08-02T04:19:08;28.88;;;20.58;;
60100;SDS011;45978;53.646;55.930;2022-08-02T04:20:13;25.95;;;18.48;;
60100;SDS011;45978;53.646;55.930;2022-08-02T04:21:20;24.13;;;17.92;;
60100;SDS011;45978;53.646;55.930;2022-08-02T04:22:44;23.20;;;17.27;;
60100;SDS011;45978;53.646;55.930;2022-08-02T04:23:50;38.53;;;19.08;;
60100;SDS011;45978;53.646;55.930;2022-08-02T04:24:56;29.05;;;17.33;;
60100;SDS011;45978;53.646;55.930;2022-08-02T04:26:00;25.42;;;17.45;;
60100;SDS011;45978;53.646;55.930;2022-08-02T04:27:03;25.55;;;18.15;;
60100;SDS011;45978;53.646;55.930;2022-08-02T04:28:07;25.02;;;18.17;;
60100;SDS011;45978;53.646;55.930;2022-08-02T04:29:10;24.92;;;16.83;;
60100;SDS011;45978;53.646;55.930;2022-08-02T04:30:13;24.73;;;18.42;;
60100;SDS011;45978;53.646;55.930;2022-08-02T04:31:16;21.02;;;18.17;;
60100;SDS011;45978;53.646;55.930;2022-08-02T04:32:18;20.77;;;16.58;;
60100;SDS011;45978;53.646;55.930;2022-08-02T04:33:21;22.98;;;16.92;;
60100;SDS011;45978;53.646;55.930;2022-08-02T04:34:24;24.33;;;16.90;;
60100;SDS011;45978;53.646;55.930;2022-08-02T04:35:26;20.85;;;16.58;;
60100;SDS011;45978;53.646;55.930;2022-08-02T04:36:27;22.38;;;16.45;;
60100;SDS011;45978;53.646;55.930;2022-08-02T04:37:29;24.67;;;17.05;;
60100;SDS011;45978;53.646;55.930;2022-08-02T04:38:30;21.85;;;16.60;;
60100;SDS011;45978;53.646;55.930;2022-08-02T04:39:32;26.23;;;16.55;;
60100;SDS011;45978;53.646;55.930;2022-08-02T04:40:34;21.02;;;16.80;;
60100;SDS011;45978;53.646;55.930;2022-08-02T04:41:40;21.67;;;16.42;;
60100;SDS011;45978;53.646;55.930;2022-08-02T04:42:43;23.50;;;16.90;;
60100;SDS011;45978;53.646;55.930;2022-08-02T04:43:44;22.33;;;17.05;;
60100;SDS011;45978;53.646;55.930;2022-08-02T04:44:51;25.00;;;16.17;;
60100;SDS011;45978;53.646;55.930;2022-08-02T04:45:53;23.05;;;16.70;;
60100;SDS011;45978;53.646;55.930;2022-08-02T04:46:55;27.00;;;18.15;;
60100;SDS011;45978;53.646;55.930;2022-08-02T04:47:57;22.48;;;17.30;;
60100;SDS011;45978;53.646;55.930;2022-08-02T04:48:59;23.33;;;18.55;;
60100;SDS011;45978;53.646;55.930;2022-08-02T04:50:00;22.65;;;17.90;;
60100;SDS011;45978;53.646;55.930;2022-08-02T04:51:01;22.25;;;16.95;;
60100;SDS011;45978;53.646;55.930;2022-08-02T04:52:03;21.17;;;16.98;;
60100;SDS011;45978;53.646;55.930;2022-08-02T04:53:05;25.00;;;17.25;;
60100;SDS011;45978;53.646;55.930;2022-08-02T04:54:08;25.77;;;17.30;;
60100;SDS011;45978;53.646;55.930;2022-08-02T04:55:10;21.00;;;16.90;;
60100;SDS011;45978;53.646;55.930;2022-08-02T04:56:11;21.38;;;16.85;;
60100;SDS011;45978;53.646;55.930;2022-08-02T04:57:13;27.35;;;18.23;;
60100;SDS011;45978;53.646;55.930;2022-08-02T04:58:32;21.80;;;17.13;;
60100;SDS011;45978;53.646;55.930;2022-08-02T04:59:37;21.13;;;16.35;;
60100;SDS011;45978;53.646;55.930;2022-08-02T05:00:44;22.30;;;17.55;;
60100;SDS011;45978;53.646;55.930;2022-08-02T05:01:46;29.05;;;17.27;;
60100;SDS011;45978;53.646;55.930;2022-08-02T05:02:47;20.67;;;17.35;;
60100;SDS011;45978;53.646;55.930;2022-08-02T05:03:51;30.60;;;17.05;;
60100;SDS011;45978;53.646;55.930;2022-08-02T05:04:54;21.08;;;16.58;;
60100;SDS011;45978;53.646;55.930;2022-08-02T05:05:55;21.17;;;16.80;;
60100;SDS011;45978;53.646;55.930;2022-08-02T05:06:57;19.55;;;14.35;;
60100;SDS011;45978;53.646;55.930;2022-08-02T05:07:58;23.25;;;15.25;;
60100;SDS011;45978;53.646;55.930;2022-08-02T05:09:00;26.00;;;14.90;;
60100;SDS011;45978;53.646;55.930;2022-08-02T05:10:02;21.38;;;15.40;;
60100;SDS011;45978;53.646;55.930;2022-08-02T05:11:04;19.60;;;15.63;;
60100;SDS011;45978;53.646;55.930;2022-08-02T05:12:06;21.00;;;16.52;;
60100;SDS011;45978;53.646;55.930;2022-08-02T05:13:08;28.05;;;16.38;;
60100;SDS011;45978;53.646;55.930;2022-08-02T05:14:09;23.65;;;17.30;;
60100;SDS011;45978;53.646;55.930;2022-08-02T05:15:11;25.95;;;17.80;;
60100;SDS011;45978;53.646;55.930;2022-08-02T05:16:16;22.23;;;18.23;;
60100;SDS011;45978;53.646;55.930;2022-08-02T05:17:22;22.63;;;17.33;;
60100;SDS011;45978;53.646;55.930;2022-08-02T05:18:47;23.23;;;16.35;;
60100;SDS011;45978;53.646;55.930;2022-08-02T05:19:51;22.27;;;17.50;;
60100;SDS011;45978;53.646;55.930;2022-08-02T05:20:53;20.10;;;17.80;;
60100;SDS011;45978;53.646;55.930;2022-08-02T05:21:54;23.40;;;17.85;;
60100;SDS011;45978;53.646;55.930;2022-08-02T05:22:55;22.90;;;17.08;;
60100;SDS011;45978;53.646;55.930;2022-08-02T05:23:57;20.33;;;17.52;;
60100;SDS011;45978;53.646;55.930;2022-08-02T05:24:58;18.60;;;15.15;;
60100;SDS011;45978;53.646;55.930;2022-08-02T05:26:00;19.45;;;14.82;;
60100;SDS011;45978;53.646;55.930;2022-08-02T05:27:01;18.83;;;15.40;;
60100;SDS011;45978;53.646;55.930;2022-08-02T05:28:02;19.98;;;16.38;;
60100;SDS011;45978;53.646;55.930;2022-08-02T05:29:04;23.63;;;18.00;;
60100;SDS011;45978;53.646;55.930;2022-08-02T05:30:05;20.33;;;15.63;;
60100;SDS011;45978;53.646;55.930;2022-08-02T05:31:09;17.88;;;15.30;;
60100;SDS011;45978;53.646;55.930;2022-08-02T05:32:14;17.15;;;15.38;;
60100;SDS011;45978;53.646;55.930;2022-08-02T05:33:15;16.25;;;14.30;;
60100;SDS011;45978;53.646;55.930;2022-08-02T05:34:16;19.05;;;14.57;;
60100;SDS011;45978;53.646;55.930;2022-08-02T05:35:21;31.13;;;14.52;;
60100;SDS011;45978;53.646;55.930;2022-08-02T05:36:24;15.95;;;14.35;;
60100;SDS011;45978;53.646;55.930;2022-08-02T05:37:26;16.92;;;14.13;;
60100;SDS011;45978;53.646;55.930;2022-08-02T05:38:27;20.08;;;14.63;;
60100;SDS011;45978;53.646;55.930;2022-08-02T05:39:31;21.50;;;15.35;;
60100;SDS011;45978;53.646;55.930;2022-08-02T05:40:33;15.27;;;12.40;;
60100;SDS011;45978;53.646;55.930;2022-08-02T05:41:34;16.30;;;13.48;;
60100;SDS011;45978;53.646;55.930;2022-08-02T05:42:35;16.15;;;14.45;;
60100;SDS011;45978;53.646;55.930;2022-08-02T05:43:37;14.18;;;12.80;;
60100;SDS011;45978;53.646;55.930;2022-08-02T05:44:38;17.55;;;12.90;;
60100;SDS011;45978;53.646;55.930;2022-08-02T05:45:40;15.15;;;13.55;;
60100;SDS011;45978;53.646;55.930;2022-08-02T05:46:42;14.75;;;13.23;;
60100;SDS011;45978;53.646;55.930;2022-08-02T05:47:45;14.95;;;13.40;;
60100;SDS011;45978;53.646;55.930;2022-08-02T05:48:46;18.38;;;12.45;;
60100;SDS011;45978;53.646;55.930;2022-08-02T05:49:48;18.27;;;12.02;;
60100;SDS011;45978;53.646;55.930;2022-08-02T05:50:53;18.60;;;12.95;;
60100;SDS011;45978;53.646;55.930;2022-08-02T05:52:15;15.23;;;13.23;;
60100;SDS011;45978;53.646;55.930;2022-08-02T05:53:26;17.38;;;14.05;;
60100;SDS011;45978;53.646;55.930;2022-08-02T05:56:01;24.05;;;13.80;;
60100;SDS011;45978;53.646;55.930;2022-08-02T05:57:47;24.25;;;13.38;;
60100;SDS011;45978;53.646;55.930;2022-08-02T05:58:57;21.58;;;12.80;;
60100;SDS011;45978;53.646;55.930;2022-08-02T06:00:03;20.05;;;13.10;;
60100;SDS011;45978;53.646;55.930;2022-08-02T06:01:13;16.98;;;12.93;;
60100;SDS011;45978;53.646;55.930;2022-08-02T06:02:35;17.48;;;13.38;;
60100;SDS011;45978;53.646;55.930;2022-08-02T06:03:46;15.30;;;13.63;;
60100;SDS011;45978;53.646;55.930;2022-08-02T06:04:53;14.27;;;12.88;;
60100;SDS011;45978;53.646;55.930;2022-08-02T06:06:05;16.17;;;12.55;;
60100;SDS011;45978;53.646;55.930;2022-08-02T06:07:12;14.75;;;13.27;;
60100;SDS011;45978;53.646;55.930;2022-08-02T06:08:17;15.98;;;13.35;;
60100;SDS011;45978;53.646;55.930;2022-08-02T06:09:20;16.60;;;12.98;;
60100;SDS011;45978;53.646;55.930;2022-08-02T06:10:24;18.73;;;13.15;;
60100;SDS011;45978;53.646;55.930;2022-08-02T06:11:38;13.10;;;11.75;;
60100;SDS011;45978;53.646;55.930;2022-08-02T06:12:45;14.65;;;13.15;;
60100;SDS011;45978;53.646;55.930;2022-08-02T06:13:50;18.08;;;13.25;;
60100;SDS011;45978;53.646;55.930;2022-08-02T06:14:54;14.07;;;12.43;;
60100;SDS011;45978;53.646;55.930;2022-08-02T06:15:56;15.82;;;13.35;;
60100;SDS011;45978;53.646;55.930;2022-08-02T06:17:02;17.42;;;13.57;;
60100;SDS011;45978;53.646;55.930;2022-08-02T06:18:05;22.08;;;14.43;;
60100;SDS011;45978;53.646;55.930;2022-08-02T06:19:08;17.80;;;14.07;;
60100;SDS011;45978;53.646;55.930;2022-08-02T06:20:11;18.95;;;14.02;;
60100;SDS011;45978;53.646;55.930;2022-08-02T06:21:14;16.73;;;13.15;;
60100;SDS011;45978;53.646;55.930;2022-08-02T06:22:16;21.40;;;12.43;;
60100;SDS011;45978;53.646;55.930;2022-08-02T06:23:18;15.13;;;13.00;;
60100;SDS011;45978;53.646;55.930;2022-08-02T06:24:22;13.77;;;12.35;;